sensor_id;sensor_type;location;lat;lon;timestamp;P1;durP1;ratioP1;P2;durP2;ratioP2
15132;SDS011;7667;51.232;17.110;2022-12-16T00:00:17;59.00;;;36.33;;
15132;SDS011;7667;51.232;17.110;2022-12-16T00:02:45;62.03;;;39.03;;
15132;SDS011;7667;51.232;17.110;2022-12-16T00:05:12;60.87;;;38.10;;
15132;SDS011;7667;51.232;17.110;2022-12-16T00:07:40;63.57;;;39.00;;
15132;SDS011;7667;51.232;17.110;2022-12-16T00:10:07;59.83;;;37.80;;
15132;SDS011;7667;51.232;17.110;2022-12-16T00:12:35;60.23;;;39.47;;
15132;SDS011;7667;51.232;17.110;2022-12-16T00:15:03;61.63;;;38.03;;
15132;SDS011;7667;51.232;17.110;2022-12-16T00:17:31;62.97;;;38.33;;
15132;SDS011;7667;51.232;17.110;2022-12-16T00:19:58;58.67;;;37.67;;
15132;SDS011;7667;51.232;17.110;2022-12-16T00:22:26;58.83;;;36.73;;
15132;SDS011;7667;51.232;17.110;2022-12-16T00:24:53;59.10;;;35.57;;
15132;SDS011;7667;51.232;17.110;2022-12-16T00:27:21;53.57;;;32.83;;
15132;SDS011;7667;51.232;17.110;2022-12-16T00:29:48;52.30;;;33.30;;
15132;SDS011;7667;51.232;17.110;2022-12-16T00:32:15;53.63;;;33.60;;
15132;SDS011;7667;51.232;17.110;2022-12-16T00:34:43;51.50;;;33.17;;
15132;SDS011;7667;51.232;17.110;2022-12-16T00:37:11;50.63;;;32.07;;
15132;SDS011;7667;51.232;17.110;2022-12-16T00:39:38;51.20;;;32.17;;
15132;SDS011;7667;51.232;17.110;2022-12-16T00:42:06;51.30;;;31.57;;
15132;SDS011;7667;51.232;17.110;2022-12-16T00:44:33;48.63;;;32.67;;
15132;SDS011;7667;51.232;17.110;2022-12-16T00:47:01;53.00;;;33.57;;
15132;SDS011;7667;51.232;17.110;2022-12-16T00:49:28;49.37;;;31.70;;
15132;SDS011;7667;51.232;17.110;2022-12-16T00:51:56;50.10;;;32.50;;
15132;SDS011;7667;51.232;17.110;2022-12-16T00:54:23;48.07;;;31.00;;
15132;SDS011;7667;51.232;17.110;2022-12-16T00:56:51;50.27;;;32.07;;
15132;SDS011;7667;51.232;17.110;2022-12-16T00:59:19;50.23;;;31.63;;
15132;SDS011;7667;51.232;17.110;2022-12-16T01:01:46;48.10;;;31.67;;
15132;SDS011;7667;51.232;17.110;2022-12-16T01:04:14;48.03;;;31.10;;
15132;SDS011;7667;51.232;17.110;2022-12-16T01:06:41;56.07;;;35.43;;
15132;SDS011;7667;51.232;17.110;2022-12-16T01:09:09;47.30;;;30.63;;
15132;SDS011;7667;51.232;17.110;2022-12-16T01:11:36;46.50;;;29.33;;
15132;SDS011;7667;51.232;17.110;2022-12-16T01:14:04;47.50;;;30.43;;
15132;SDS011;7667;51.232;17.110;2022-12-16T01:16:31;48.63;;;31.53;;
15132;SDS011;7667;51.232;17.110;2022-12-16T01:19:00;45.53;;;28.87;;
15132;SDS011;7667;51.232;17.110;2022-12-16T01:21:28;45.17;;;29.50;;
15132;SDS011;7667;51.232;17.110;2022-12-16T01:23:55;47.80;;;28.67;;
15132;SDS011;7667;51.232;17.110;2022-12-16T01:26:23;43.60;;;28.13;;
15132;SDS011;7667;51.232;17.110;2022-12-16T01:28:50;43.90;;;28.20;;
15132;SDS011;7667;51.232;17.110;2022-12-16T01:31:20;41.77;;;27.20;;
15132;SDS011;7667;51.232;17.110;2022-12-16T01:33:49;42.83;;;26.40;;
15132;SDS011;7667;51.232;17.110;2022-12-16T01:36:16;44.97;;;28.27;;
15132;SDS011;7667;51.232;17.110;2022-12-16T01:38:44;44.00;;;29.10;;
15132;SDS011;7667;51.232;17.110;2022-12-16T01:41:13;42.30;;;27.63;;
15132;SDS011;7667;51.232;17.110;2022-12-16T01:43:44;43.97;;;28.00;;
15132;SDS011;7667;51.232;17.110;2022-12-16T01:51:33;43.83;;;27.87;;
15132;SDS011;7667;51.232;17.110;2022-12-16T01:56:47;40.97;;;26.33;;
15132;SDS011;7667;51.232;17.110;2022-12-16T01:59:28;40.40;;;25.33;;
15132;SDS011;7667;51.232;17.110;2022-12-16T02:01:59;39.87;;;25.90;;
15132;SDS011;7667;51.232;17.110;2022-12-16T02:04:29;38.73;;;25.43;;
15132;SDS011;7667;51.232;17.110;2022-12-16T02:06:56;36.77;;;24.70;;
15132;SDS011;7667;51.232;17.110;2022-12-16T02:09:27;36.13;;;22.40;;
15132;SDS011;7667;51.232;17.110;2022-12-16T02:17:44;36.53;;;23.73;;
15132;SDS011;7667;51.232;17.110;2022-12-16T02:37:41;42.60;;;26.13;;
15132;SDS011;7667;51.232;17.110;2022-12-16T02:40:27;35.73;;;23.43;;
15132;SDS011;7667;51.232;17.110;2022-12-16T02:43:05;40.03;;;24.97;;
15132;SDS011;7667;51.232;17.110;2022-12-16T02:45:43;40.83;;;25.97;;
15132;SDS011;7667;51.232;17.110;2022-12-16T02:48:11;37.93;;;23.83;;
15132;SDS011;7667;51.232;17.110;2022-12-16T02:50:43;39.20;;;25.40;;
15132;SDS011;7667;51.232;17.110;2022-12-16T02:53:15;38.87;;;24.57;;
15132;SDS011;7667;51.232;17.110;2022-12-16T03:01:18;38.97;;;25.97;;
15132;SDS011;7667;51.232;17.110;2022-12-16T03:06:54;41.53;;;25.80;;
15132;SDS011;7667;51.232;17.110;2022-12-16T03:09:25;40.30;;;24.87;;
15132;SDS011;7667;51.232;17.110;2022-12-16T03:11:58;40.73;;;25.87;;
15132;SDS011;7667;51.232;17.110;2022-12-16T03:14:31;39.73;;;26.77;;
15132;SDS011;7667;51.232;17.110;2022-12-16T03:17:00;41.07;;;26.30;;
15132;SDS011;7667;51.232;17.110;2022-12-16T03:19:29;40.77;;;24.47;;
15132;SDS011;7667;51.232;17.110;2022-12-16T03:22:05;41.60;;;27.10;;
15132;SDS011;7667;51.232;17.110;2022-12-16T03:24:38;42.27;;;26.57;;
15132;SDS011;7667;51.232;17.110;2022-12-16T03:32:50;42.90;;;28.07;;
15132;SDS011;7667;51.232;17.110;2022-12-16T03:35:33;45.10;;;28.77;;
15132;SDS011;7667;51.232;17.110;2022-12-16T03:38:24;42.43;;;27.33;;
15132;SDS011;7667;51.232;17.110;2022-12-16T03:40:53;42.00;;;26.73;;
15132;SDS011;7667;51.232;17.110;2022-12-16T03:43:22;45.77;;;28.87;;
15132;SDS011;7667;51.232;17.110;2022-12-16T03:45:52;43.47;;;27.60;;
15132;SDS011;7667;51.232;17.110;2022-12-16T03:48:25;43.07;;;28.40;;
15132;SDS011;7667;51.232;17.110;2022-12-16T03:50:53;43.53;;;28.53;;
15132;SDS011;7667;51.232;17.110;2022-12-16T03:53:21;45.00;;;28.53;;
15132;SDS011;7667;51.232;17.110;2022-12-16T03:55:52;41.57;;;27.83;;
15132;SDS011;7667;51.232;17.110;2022-12-16T03:58:20;41.73;;;28.03;;
15132;SDS011;7667;51.232;17.110;2022-12-16T04:00:47;44.17;;;29.70;;
15132;SDS011;7667;51.232;17.110;2022-12-16T04:03:15;43.07;;;28.20;;
15132;SDS011;7667;51.232;17.110;2022-12-16T04:05:44;46.80;;;29.13;;
15132;SDS011;7667;51.232;17.110;2022-12-16T04:08:11;44.63;;;28.80;;
15132;SDS011;7667;51.232;17.110;2022-12-16T04:10:39;44.90;;;29.50;;
15132;SDS011;7667;51.232;17.110;2022-12-16T04:13:25;43.63;;;27.50;;
15132;SDS011;7667;51.232;17.110;2022-12-16T04:16:15;44.63;;;29.53;;
15132;SDS011;7667;51.232;17.110;2022-12-16T04:19:01;44.10;;;29.10;;
15132;SDS011;7667;51.232;17.110;2022-12-16T04:21:47;41.63;;;27.30;;
15132;SDS011;7667;51.232;17.110;2022-12-16T04:24:34;42.63;;;28.40;;
15132;SDS011;7667;51.232;17.110;2022-12-16T04:27:01;44.33;;;27.40;;
15132;SDS011;7667;51.232;17.110;2022-12-16T04:29:48;45.37;;;28.80;;
15132;SDS011;7667;51.232;17.110;2022-12-16T04:32:34;41.60;;;26.70;;
15132;SDS011;7667;51.232;17.110;2022-12-16T04:35:19;41.50;;;26.97;;
15132;SDS011;7667;51.232;17.110;2022-12-16T04:38:06;42.83;;;26.83;;
15132;SDS011;7667;51.232;17.110;2022-12-16T04:40:52;42.37;;;27.77;;
15132;SDS011;7667;51.232;17.110;2022-12-16T04:43:38;40.17;;;27.33;;
15132;SDS011;7667;51.232;17.110;2022-12-16T04:46:24;40.50;;;25.80;;
15132;SDS011;7667;51.232;17.110;2022-12-16T04:49:11;38.73;;;26.07;;
15132;SDS011;7667;51.232;17.110;2022-12-16T04:51:57;40.10;;;26.93;;
15132;SDS011;7667;51.232;17.110;2022-12-16T04:54:42;42.27;;;27.10;;
15132;SDS011;7667;51.232;17.110;2022-12-16T04:57:28;40.07;;;26.13;;
15132;SDS011;7667;51.232;17.110;2022-12-16T05:00:14;38.53;;;25.17;;
15132;SDS011;7667;51.232;17.110;2022-12-16T05:03:00;39.73;;;25.60;;
15132;SDS011;7667;51.232;17.110;2022-12-16T05:05:46;41.57;;;27.13;;
15132;SDS011;7667;51.232;17.110;2022-12-16T05:08:32;41.13;;;27.20;;
15132;SDS011;7667;51.232;17.110;2022-12-16T05:11:18;43.90;;;27.63;;
15132;SDS011;7667;51.232;17.110;2022-12-16T05:14:04;42.63;;;26.87;;
15132;SDS011;7667;51.232;17.110;2022-12-16T05:16:50;41.60;;;26.83;;
15132;SDS011;7667;51.232;17.110;2022-12-16T05:19:36;45.50;;;28.80;;
15132;SDS011;7667;51.232;17.110;2022-12-16T05:22:22;50.27;;;30.73;;
15132;SDS011;7667;51.232;17.110;2022-12-16T05:25:08;52.03;;;31.73;;
15132;SDS011;7667;51.232;17.110;2022-12-16T05:27:54;51.63;;;32.17;;
15132;SDS011;7667;51.232;17.110;2022-12-16T05:30:40;50.27;;;29.67;;
15132;SDS011;7667;51.232;17.110;2022-12-16T05:33:26;47.27;;;30.87;;
15132;SDS011;7667;51.232;17.110;2022-12-16T05:36:12;44.30;;;28.40;;
15132;SDS011;7667;51.232;17.110;2022-12-16T05:38:58;47.10;;;28.37;;
15132;SDS011;7667;51.232;17.110;2022-12-16T05:41:44;44.30;;;27.37;;
15132;SDS011;7667;51.232;17.110;2022-12-16T05:44:30;42.67;;;27.40;;
15132;SDS011;7667;51.232;17.110;2022-12-16T05:47:16;41.70;;;27.00;;
15132;SDS011;7667;51.232;17.110;2022-12-16T05:50:04;47.00;;;30.83;;
15132;SDS011;7667;51.232;17.110;2022-12-16T05:52:51;43.07;;;29.00;;
15132;SDS011;7667;51.232;17.110;2022-12-16T05:55:39;41.53;;;26.63;;
15132;SDS011;7667;51.232;17.110;2022-12-16T05:58:26;39.70;;;25.70;;
15132;SDS011;7667;51.232;17.110;2022-12-16T06:01:13;40.20;;;25.27;;
15132;SDS011;7667;51.232;17.110;2022-12-16T06:03:59;37.80;;;24.53;;
15132;SDS011;7667;51.232;17.110;2022-12-16T06:06:45;36.60;;;23.50;;
15132;SDS011;7667;51.232;17.110;2022-12-16T06:09:31;38.87;;;24.60;;
15132;SDS011;7667;51.232;17.110;2022-12-16T06:12:22;36.63;;;22.73;;
15132;SDS011;7667;51.232;17.110;2022-12-16T06:15:08;37.73;;;24.17;;
15132;SDS011;7667;51.232;17.110;2022-12-16T06:17:54;33.93;;;21.87;;
15132;SDS011;7667;51.232;17.110;2022-12-16T06:20:40;35.20;;;21.43;;
15132;SDS011;7667;51.232;17.110;2022-12-16T06:23:27;33.53;;;21.73;;
15132;SDS011;7667;51.232;17.110;2022-12-16T06:26:13;37.80;;;24.63;;
15132;SDS011;7667;51.232;17.110;2022-12-16T06:29:00;38.77;;;25.73;;
15132;SDS011;7667;51.232;17.110;2022-12-16T06:31:46;43.13;;;27.80;;
15132;SDS011;7667;51.232;17.110;2022-12-16T06:34:32;48.03;;;30.90;;
15132;SDS011;7667;51.232;17.110;2022-12-16T06:37:18;45.67;;;30.10;;
15132;SDS011;7667;51.232;17.110;2022-12-16T06:40:04;47.80;;;30.30;;
15132;SDS011;7667;51.232;17.110;2022-12-16T06:42:50;44.43;;;29.10;;
15132;SDS011;7667;51.232;17.110;2022-12-16T06:45:36;44.20;;;28.47;;
15132;SDS011;7667;51.232;17.110;2022-12-16T06:48:22;47.00;;;29.30;;
15132;SDS011;7667;51.232;17.110;2022-12-16T06:51:08;43.97;;;29.60;;
15132;SDS011;7667;51.232;17.110;2022-12-16T06:53:54;57.90;;;33.73;;
15132;SDS011;7667;51.232;17.110;2022-12-16T06:56:40;61.87;;;33.40;;
15132;SDS011;7667;51.232;17.110;2022-12-16T06:59:26;52.40;;;31.77;;
15132;SDS011;7667;51.232;17.110;2022-12-16T07:02:12;49.67;;;31.27;;
15132;SDS011;7667;51.232;17.110;2022-12-16T07:04:58;46.30;;;29.93;;
15132;SDS011;7667;51.232;17.110;2022-12-16T07:07:48;69.30;;;37.30;;
15132;SDS011;7667;51.232;17.110;2022-12-16T07:10:36;50.60;;;31.73;;
15132;SDS011;7667;51.232;17.110;2022-12-16T07:13:40;51.10;;;31.47;;
15132;SDS011;7667;51.232;17.110;2022-12-16T07:16:26;51.70;;;33.13;;
15132;SDS011;7667;51.232;17.110;2022-12-16T07:19:12;50.63;;;32.07;;
15132;SDS011;7667;51.232;17.110;2022-12-16T07:22:00;45.07;;;29.67;;
15132;SDS011;7667;51.232;17.110;2022-12-16T07:24:46;46.97;;;28.17;;
15132;SDS011;7667;51.232;17.110;2022-12-16T07:27:32;43.83;;;27.60;;
15132;SDS011;7667;51.232;17.110;2022-12-16T07:30:18;41.90;;;28.47;;
15132;SDS011;7667;51.232;17.110;2022-12-16T07:33:24;42.13;;;28.30;;
15132;SDS011;7667;51.232;17.110;2022-12-16T07:36:10;43.03;;;28.53;;
15132;SDS011;7667;51.232;17.110;2022-12-16T07:38:56;43.30;;;28.80;;
15132;SDS011;7667;51.232;17.110;2022-12-16T07:41:42;43.90;;;28.63;;
15132;SDS011;7667;51.232;17.110;2022-12-16T07:44:28;46.07;;;29.50;;
15132;SDS011;7667;51.232;17.110;2022-12-16T07:47:14;45.17;;;28.67;;
15132;SDS011;7667;51.232;17.110;2022-12-16T07:50:00;46.90;;;30.03;;
15132;SDS011;7667;51.232;17.110;2022-12-16T07:52:52;50.07;;;31.80;;
15132;SDS011;7667;51.232;17.110;2022-12-16T07:55:42;45.77;;;29.60;;
15132;SDS011;7667;51.232;17.110;2022-12-16T07:58:29;52.83;;;33.23;;
15132;SDS011;7667;51.232;17.110;2022-12-16T08:01:15;85.97;;;45.80;;
15132;SDS011;7667;51.232;17.110;2022-12-16T08:04:01;86.27;;;44.03;;
15132;SDS011;7667;51.232;17.110;2022-12-16T08:06:47;81.27;;;43.33;;
15132;SDS011;7667;51.232;17.110;2022-12-16T08:09:33;114.70;;;53.47;;
15132;SDS011;7667;51.232;17.110;2022-12-16T08:12:19;60.50;;;37.43;;
15132;SDS011;7667;51.232;17.110;2022-12-16T08:15:05;59.80;;;36.87;;
15132;SDS011;7667;51.232;17.110;2022-12-16T08:17:52;57.57;;;37.57;;
15132;SDS011;7667;51.232;17.110;2022-12-16T08:20:38;60.97;;;38.93;;
15132;SDS011;7667;51.232;17.110;2022-12-16T08:23:24;52.53;;;34.73;;
15132;SDS011;7667;51.232;17.110;2022-12-16T08:26:10;57.30;;;36.37;;
15132;SDS011;7667;51.232;17.110;2022-12-16T08:28:56;52.67;;;34.67;;
15132;SDS011;7667;51.232;17.110;2022-12-16T08:32:04;60.77;;;38.23;;
15132;SDS011;7667;51.232;17.110;2022-12-16T08:34:50;87.97;;;46.57;;
15132;SDS011;7667;51.232;17.110;2022-12-16T08:37:36;71.43;;;41.83;;
15132;SDS011;7667;51.232;17.110;2022-12-16T08:40:21;64.07;;;39.63;;
15132;SDS011;7667;51.232;17.110;2022-12-16T08:43:08;61.63;;;38.83;;
15132;SDS011;7667;51.232;17.110;2022-12-16T08:45:54;53.30;;;36.67;;
15132;SDS011;7667;51.232;17.110;2022-12-16T08:48:40;57.23;;;36.70;;
15132;SDS011;7667;51.232;17.110;2022-12-16T08:51:27;62.03;;;40.37;;
15132;SDS011;7667;51.232;17.110;2022-12-16T08:54:13;56.20;;;37.33;;
15132;SDS011;7667;51.232;17.110;2022-12-16T08:57:00;56.37;;;36.93;;
15132;SDS011;7667;51.232;17.110;2022-12-16T08:59:46;58.00;;;37.50;;
15132;SDS011;7667;51.232;17.110;2022-12-16T09:02:32;53.70;;;37.83;;
15132;SDS011;7667;51.232;17.110;2022-12-16T09:05:21;59.60;;;37.07;;
15132;SDS011;7667;51.232;17.110;2022-12-16T09:08:07;59.70;;;37.80;;
15132;SDS011;7667;51.232;17.110;2022-12-16T09:10:53;57.43;;;37.40;;
15132;SDS011;7667;51.232;17.110;2022-12-16T09:13:39;59.13;;;38.50;;
15132;SDS011;7667;51.232;17.110;2022-12-16T09:16:25;73.63;;;44.53;;
15132;SDS011;7667;51.232;17.110;2022-12-16T09:19:11;65.77;;;40.70;;
15132;SDS011;7667;51.232;17.110;2022-12-16T09:21:57;59.97;;;38.50;;
15132;SDS011;7667;51.232;17.110;2022-12-16T09:24:43;57.93;;;38.53;;
15132;SDS011;7667;51.232;17.110;2022-12-16T09:27:29;58.57;;;38.40;;
15132;SDS011;7667;51.232;17.110;2022-12-16T09:30:15;79.07;;;46.47;;
15132;SDS011;7667;51.232;17.110;2022-12-16T09:33:01;66.60;;;41.10;;
15132;SDS011;7667;51.232;17.110;2022-12-16T09:35:47;91.10;;;50.57;;
15132;SDS011;7667;51.232;17.110;2022-12-16T09:38:33;67.60;;;42.50;;
15132;SDS011;7667;51.232;17.110;2022-12-16T09:47:27;64.70;;;40.57;;
15132;SDS011;7667;51.232;17.110;2022-12-16T09:50:28;59.47;;;39.30;;
15132;SDS011;7667;51.232;17.110;2022-12-16T09:53:19;63.30;;;40.50;;
15132;SDS011;7667;51.232;17.110;2022-12-16T09:56:15;62.73;;;39.83;;
15132;SDS011;7667;51.232;17.110;2022-12-16T09:59:09;63.57;;;40.93;;
15132;SDS011;7667;51.232;17.110;2022-12-16T10:01:58;63.00;;;40.47;;
15132;SDS011;7667;51.232;17.110;2022-12-16T10:05:05;60.63;;;40.47;;
15132;SDS011;7667;51.232;17.110;2022-12-16T10:11:22;64.70;;;40.53;;
15132;SDS011;7667;51.232;17.110;2022-12-16T10:14:50;60.90;;;40.97;;
15132;SDS011;7667;51.232;17.110;2022-12-16T10:17:58;65.03;;;41.80;;
15132;SDS011;7667;51.232;17.110;2022-12-16T10:20:50;65.53;;;40.93;;
15132;SDS011;7667;51.232;17.110;2022-12-16T10:23:50;63.03;;;40.60;;
15132;SDS011;7667;51.232;17.110;2022-12-16T10:26:57;62.57;;;40.27;;
15132;SDS011;7667;51.232;17.110;2022-12-16T10:29:51;63.03;;;40.83;;
15132;SDS011;7667;51.232;17.110;2022-12-16T10:32:39;60.60;;;39.00;;
15132;SDS011;7667;51.232;17.110;2022-12-16T10:38:41;68.60;;;42.97;;
15132;SDS011;7667;51.232;17.110;2022-12-16T10:41:34;65.90;;;41.77;;
15132;SDS011;7667;51.232;17.110;2022-12-16T10:47:21;59.53;;;38.00;;
15132;SDS011;7667;51.232;17.110;2022-12-16T10:50:11;61.30;;;40.63;;
15132;SDS011;7667;51.232;17.110;2022-12-16T10:53:02;63.80;;;40.73;;
15132;SDS011;7667;51.232;17.110;2022-12-16T10:59:21;58.43;;;39.20;;
15132;SDS011;7667;51.232;17.110;2022-12-16T11:02:20;66.97;;;41.17;;
15132;SDS011;7667;51.232;17.110;2022-12-16T11:08:31;65.90;;;40.27;;
15132;SDS011;7667;51.232;17.110;2022-12-16T11:11:28;61.17;;;40.23;;
15132;SDS011;7667;51.232;17.110;2022-12-16T11:14:23;63.40;;;40.87;;
15132;SDS011;7667;51.232;17.110;2022-12-16T11:17:30;66.53;;;43.00;;
15132;SDS011;7667;51.232;17.110;2022-12-16T11:20:20;64.57;;;41.20;;
15132;SDS011;7667;51.232;17.110;2022-12-16T11:26:06;66.67;;;41.90;;
15132;SDS011;7667;51.232;17.110;2022-12-16T11:31:55;70.13;;;42.17;;
15132;SDS011;7667;51.232;17.110;2022-12-16T11:34:57;66.63;;;42.73;;
15132;SDS011;7667;51.232;17.110;2022-12-16T11:37:45;68.90;;;43.50;;
15132;SDS011;7667;51.232;17.110;2022-12-16T11:40:34;72.83;;;45.47;;
15132;SDS011;7667;51.232;17.110;2022-12-16T11:43:22;74.50;;;46.47;;
15132;SDS011;7667;51.232;17.110;2022-12-16T11:46:10;70.20;;;44.07;;
15132;SDS011;7667;51.232;17.110;2022-12-16T11:49:05;66.73;;;44.07;;
15132;SDS011;7667;51.232;17.110;2022-12-16T11:52:15;67.83;;;44.07;;
15132;SDS011;7667;51.232;17.110;2022-12-16T11:55:22;65.00;;;42.70;;
15132;SDS011;7667;51.232;17.110;2022-12-16T11:58:47;70.20;;;44.80;;
15132;SDS011;7667;51.232;17.110;2022-12-16T12:01:57;73.17;;;44.93;;
15132;SDS011;7667;51.232;17.110;2022-12-16T12:04:47;70.70;;;44.67;;
15132;SDS011;7667;51.232;17.110;2022-12-16T12:07:42;67.80;;;44.23;;
15132;SDS011;7667;51.232;17.110;2022-12-16T12:10:49;69.37;;;42.63;;
15132;SDS011;7667;51.232;17.110;2022-12-16T12:13:57;56.60;;;37.57;;
15132;SDS011;7667;51.232;17.110;2022-12-16T12:22:36;70.23;;;45.23;;
15132;SDS011;7667;51.232;17.110;2022-12-16T12:25:27;76.30;;;46.67;;
15132;SDS011;7667;51.232;17.110;2022-12-16T12:28:54;68.57;;;45.17;;
15132;SDS011;7667;51.232;17.110;2022-12-16T12:35:07;73.87;;;46.13;;
15132;SDS011;7667;51.232;17.110;2022-12-16T12:41:23;70.53;;;44.80;;
15132;SDS011;7667;51.232;17.110;2022-12-16T12:44:31;72.17;;;45.40;;
15132;SDS011;7667;51.232;17.110;2022-12-16T12:47:36;84.67;;;49.47;;
15132;SDS011;7667;51.232;17.110;2022-12-16T12:50:38;70.77;;;45.27;;
15132;SDS011;7667;51.232;17.110;2022-12-16T12:53:49;73.77;;;46.30;;
15132;SDS011;7667;51.232;17.110;2022-12-16T12:56:59;78.37;;;47.27;;
15132;SDS011;7667;51.232;17.110;2022-12-16T12:59:53;73.83;;;46.60;;
15132;SDS011;7667;51.232;17.110;2022-12-16T13:06:13;73.10;;;46.00;;
15132;SDS011;7667;51.232;17.110;2022-12-16T13:09:00;73.27;;;46.17;;
15132;SDS011;7667;51.232;17.110;2022-12-16T13:18:11;73.77;;;46.13;;
15132;SDS011;7667;51.232;17.110;2022-12-16T13:21:03;73.13;;;45.70;;
15132;SDS011;7667;51.232;17.110;2022-12-16T13:27:25;79.13;;;48.67;;
15132;SDS011;7667;51.232;17.110;2022-12-16T13:33:25;78.27;;;45.67;;
15132;SDS011;7667;51.232;17.110;2022-12-16T13:36:16;74.83;;;46.53;;
15132;SDS011;7667;51.232;17.110;2022-12-16T13:39:22;78.73;;;47.00;;
15132;SDS011;7667;51.232;17.110;2022-12-16T13:45:36;81.87;;;49.57;;
15132;SDS011;7667;51.232;17.110;2022-12-16T13:48:49;84.03;;;50.27;;
15132;SDS011;7667;51.232;17.110;2022-12-16T13:54:27;72.33;;;46.00;;
15132;SDS011;7667;51.232;17.110;2022-12-16T13:57:25;82.50;;;49.10;;
15132;SDS011;7667;51.232;17.110;2022-12-16T14:00:16;82.43;;;49.57;;
15132;SDS011;7667;51.232;17.110;2022-12-16T14:03:38;82.13;;;48.80;;
15132;SDS011;7667;51.232;17.110;2022-12-16T14:06:33;87.47;;;50.63;;
15132;SDS011;7667;51.232;17.110;2022-12-16T14:09:23;84.77;;;48.10;;
15132;SDS011;7667;51.232;17.110;2022-12-16T14:12:45;88.70;;;50.43;;
15132;SDS011;7667;51.232;17.110;2022-12-16T14:16:10;91.67;;;52.07;;
15132;SDS011;7667;51.232;17.110;2022-12-16T14:25:55;84.97;;;48.73;;
15132;SDS011;7667;51.232;17.110;2022-12-16T14:28:44;84.87;;;48.67;;
15132;SDS011;7667;51.232;17.110;2022-12-16T14:31:36;88.30;;;50.70;;
15132;SDS011;7667;51.232;17.110;2022-12-16T14:34:29;79.27;;;49.17;;
15132;SDS011;7667;51.232;17.110;2022-12-16T14:37:22;81.50;;;47.43;;
15132;SDS011;7667;51.232;17.110;2022-12-16T14:40:24;83.40;;;49.70;;
15132;SDS011;7667;51.232;17.110;2022-12-16T14:43:18;84.57;;;49.33;;
15132;SDS011;7667;51.232;17.110;2022-12-16T14:49:23;85.20;;;49.17;;
15132;SDS011;7667;51.232;17.110;2022-12-16T14:52:19;79.67;;;47.97;;
15132;SDS011;7667;51.232;17.110;2022-12-16T15:01:09;82.43;;;48.70;;
15132;SDS011;7667;51.232;17.110;2022-12-16T15:04:16;78.17;;;48.50;;
15132;SDS011;7667;51.232;17.110;2022-12-16T15:07:04;86.73;;;49.37;;
15132;SDS011;7667;51.232;17.110;2022-12-16T15:09:57;78.67;;;48.27;;
15132;SDS011;7667;51.232;17.110;2022-12-16T15:12:44;79.47;;;46.97;;
15132;SDS011;7667;51.232;17.110;2022-12-16T15:15:33;73.07;;;45.10;;
15132;SDS011;7667;51.232;17.110;2022-12-16T15:18:27;75.83;;;46.70;;
15132;SDS011;7667;51.232;17.110;2022-12-16T15:21:26;74.60;;;45.17;;
15132;SDS011;7667;51.232;17.110;2022-12-16T15:24:17;68.73;;;43.03;;
15132;SDS011;7667;51.232;17.110;2022-12-16T15:27:11;73.27;;;44.43;;
15132;SDS011;7667;51.232;17.110;2022-12-16T15:33:16;71.77;;;43.97;;
15132;SDS011;7667;51.232;17.110;2022-12-16T15:36:05;77.10;;;45.23;;
15132;SDS011;7667;51.232;17.110;2022-12-16T15:39:14;73.97;;;43.27;;
15132;SDS011;7667;51.232;17.110;2022-12-16T15:42:21;72.23;;;44.07;;
15132;SDS011;7667;51.232;17.110;2022-12-16T15:48:28;77.23;;;45.70;;
15132;SDS011;7667;51.232;17.110;2022-12-16T15:51:20;73.53;;;45.80;;
15132;SDS011;7667;51.232;17.110;2022-12-16T15:54:47;73.37;;;44.83;;
15132;SDS011;7667;51.232;17.110;2022-12-16T15:57:38;72.63;;;44.33;;
15132;SDS011;7667;51.232;17.110;2022-12-16T16:00:27;75.77;;;45.23;;
15132;SDS011;7667;51.232;17.110;2022-12-16T16:03:22;72.53;;;45.90;;
15132;SDS011;7667;51.232;17.110;2022-12-16T16:06:25;74.73;;;45.37;;
15132;SDS011;7667;51.232;17.110;2022-12-16T16:09:29;78.43;;;48.47;;
15132;SDS011;7667;51.232;17.110;2022-12-16T16:12:18;82.40;;;49.20;;
15132;SDS011;7667;51.232;17.110;2022-12-16T16:15:08;85.03;;;49.77;;
15132;SDS011;7667;51.232;17.110;2022-12-16T16:17:57;80.37;;;48.17;;
15132;SDS011;7667;51.232;17.110;2022-12-16T16:20:48;79.83;;;49.03;;
15132;SDS011;7667;51.232;17.110;2022-12-16T16:23:35;81.87;;;49.57;;
15132;SDS011;7667;51.232;17.110;2022-12-16T16:26:22;89.53;;;53.00;;
15132;SDS011;7667;51.232;17.110;2022-12-16T16:29:11;75.93;;;47.20;;
15132;SDS011;7667;51.232;17.110;2022-12-16T16:31:58;81.33;;;50.77;;
15132;SDS011;7667;51.232;17.110;2022-12-16T16:34:46;91.80;;;53.97;;
15132;SDS011;7667;51.232;17.110;2022-12-16T16:37:34;93.70;;;53.70;;
15132;SDS011;7667;51.232;17.110;2022-12-16T16:40:24;89.27;;;52.73;;
15132;SDS011;7667;51.232;17.110;2022-12-16T16:43:16;90.83;;;53.80;;
15132;SDS011;7667;51.232;17.110;2022-12-16T16:46:06;86.13;;;52.17;;
15132;SDS011;7667;51.232;17.110;2022-12-16T16:49:21;81.50;;;49.27;;
15132;SDS011;7667;51.232;17.110;2022-12-16T16:52:17;77.67;;;48.00;;
15132;SDS011;7667;51.232;17.110;2022-12-16T16:55:06;80.33;;;48.97;;
15132;SDS011;7667;51.232;17.110;2022-12-16T16:57:58;80.43;;;48.50;;
15132;SDS011;7667;51.232;17.110;2022-12-16T17:00:44;79.80;;;49.23;;
15132;SDS011;7667;51.232;17.110;2022-12-16T17:03:30;82.43;;;50.53;;
15132;SDS011;7667;51.232;17.110;2022-12-16T17:06:16;78.93;;;48.90;;
15132;SDS011;7667;51.232;17.110;2022-12-16T17:09:02;75.70;;;48.07;;
15132;SDS011;7667;51.232;17.110;2022-12-16T17:11:48;79.80;;;49.83;;
15132;SDS011;7667;51.232;17.110;2022-12-16T17:14:34;75.77;;;46.50;;
15132;SDS011;7667;51.232;17.110;2022-12-16T17:17:20;80.77;;;49.00;;
15132;SDS011;7667;51.232;17.110;2022-12-16T17:20:06;74.27;;;47.67;;
15132;SDS011;7667;51.232;17.110;2022-12-16T17:22:57;78.37;;;48.47;;
15132;SDS011;7667;51.232;17.110;2022-12-16T17:25:43;84.03;;;49.53;;
15132;SDS011;7667;51.232;17.110;2022-12-16T17:28:30;80.23;;;49.03;;
15132;SDS011;7667;51.232;17.110;2022-12-16T17:31:16;82.60;;;50.60;;
15132;SDS011;7667;51.232;17.110;2022-12-16T17:34:02;95.27;;;54.77;;
15132;SDS011;7667;51.232;17.110;2022-12-16T17:36:48;87.80;;;52.63;;
15132;SDS011;7667;51.232;17.110;2022-12-16T17:39:34;90.57;;;53.43;;
15132;SDS011;7667;51.232;17.110;2022-12-16T17:42:30;92.30;;;56.17;;
15132;SDS011;7667;51.232;17.110;2022-12-16T17:45:16;93.13;;;54.13;;
15132;SDS011;7667;51.232;17.110;2022-12-16T17:48:10;98.93;;;58.70;;
15132;SDS011;7667;51.232;17.110;2022-12-16T17:50:56;99.23;;;58.37;;
15132;SDS011;7667;51.232;17.110;2022-12-16T17:53:42;103.73;;;57.90;;
15132;SDS011;7667;51.232;17.110;2022-12-16T17:56:39;114.03;;;63.87;;
15132;SDS011;7667;51.232;17.110;2022-12-16T17:59:26;106.03;;;58.50;;
15132;SDS011;7667;51.232;17.110;2022-12-16T18:02:18;100.70;;;60.73;;
15132;SDS011;7667;51.232;17.110;2022-12-16T18:05:18;95.03;;;57.60;;
15132;SDS011;7667;51.232;17.110;2022-12-16T18:08:10;93.50;;;56.57;;
15132;SDS011;7667;51.232;17.110;2022-12-16T18:10:56;95.43;;;57.57;;
15132;SDS011;7667;51.232;17.110;2022-12-16T18:13:43;102.47;;;59.40;;
15132;SDS011;7667;51.232;17.110;2022-12-16T18:16:29;106.33;;;60.83;;
15132;SDS011;7667;51.232;17.110;2022-12-16T18:19:15;103.97;;;59.77;;
15132;SDS011;7667;51.232;17.110;2022-12-16T18:22:01;103.00;;;60.00;;